createdAt,value
2023-06-07T00:00:11.322Z,8.62
2023-06-07T00:02:44.013Z,8.60
2023-06-07T00:05:14.279Z,8.56
2023-06-07T00:07:41.796Z,8.47
2023-06-07T00:10:08.783Z,8.36
2023-06-07T00:12:36.844Z,8.25
2023-06-07T00:15:05.165Z,8.17
2023-06-07T00:17:32.434Z,8.12
2023-06-07T00:19:59.342Z,8.21
2023-06-07T00:22:26.483Z,8.25
2023-06-07T00:24:53.559Z,8.28
2023-06-07T00:27:21.708Z,8.25
2023-06-07T00:29:49.050Z,8.25
2023-06-07T00:32:15.846Z,8.19
2023-06-07T00:34:42.525Z,8.15
2023-06-07T00:37:09.388Z,8.15
2023-06-07T00:39:36.036Z,8.18
2023-06-07T00:42:02.719Z,8.17
2023-06-07T00:44:30.883Z,8.15
2023-06-07T00:46:57.659Z,8.11
2023-06-07T00:49:24.609Z,8.09
2023-06-07T00:51:51.947Z,8.08
2023-06-07T00:54:19.003Z,8.08
2023-06-07T00:56:50.720Z,8.11
2023-06-07T00:59:23.399Z,8.10
2023-06-07T01:01:54.477Z,8.06
2023-06-07T01:04:21.857Z,7.98
2023-06-07T01:06:48.726Z,7.96
2023-06-07T01:09:17.591Z,7.92
2023-06-07T01:11:49.439Z,7.94
2023-06-07T01:14:18.558Z,7.98
2023-06-07T01:16:49.788Z,7.94
2023-06-07T01:19:22.938Z,7.91
2023-06-07T01:21:55.903Z,7.88
2023-06-07T01:24:23.653Z,7.87
2023-06-07T01:26:58.297Z,7.88
2023-06-07T01:29:29.604Z,7.84
2023-06-07T01:31:58.808Z,7.92
2023-06-07T01:34:25.916Z,7.98
2023-06-07T01:36:57.160Z,7.97
2023-06-07T01:39:26.157Z,7.95
2023-06-07T01:41:54.711Z,7.90
2023-06-07T01:44:21.758Z,7.83
2023-06-07T01:46:48.704Z,7.86
2023-06-07T01:49:19.524Z,7.86
2023-06-07T01:51:46.328Z,7.84
2023-06-07T01:54:15.858Z,7.83
2023-06-07T01:56:55.557Z,7.80
2023-06-07T01:59:41.649Z,7.76
2023-06-07T02:02:34.285Z,7.76
2023-06-07T02:05:08.232Z,7.75
2023-06-07T02:07:44.693Z,7.72
2023-06-07T02:10:12.103Z,7.69
2023-06-07T02:12:40.703Z,7.65
2023-06-07T02:15:07.891Z,7.56
2023-06-07T02:17:34.714Z,7.55
2023-06-07T02:20:03.113Z,7.52
2023-06-07T02:22:30.386Z,7.53
2023-06-07T02:24:58.961Z,7.57
2023-06-07T02:27:26.826Z,7.62
2023-06-07T02:29:54.005Z,7.64
2023-06-07T02:32:20.648Z,7.64
2023-06-07T02:34:48.963Z,7.60
2023-06-07T02:37:17.103Z,7.58
2023-06-07T02:39:43.781Z,7.58
2023-06-07T02:42:12.234Z,7.58
2023-06-07T02:44:38.874Z,7.55
2023-06-07T02:47:08.065Z,7.50
2023-06-07T02:49:34.747Z,7.51
2023-06-07T02:52:01.590Z,7.52
2023-06-07T02:54:28.266Z,7.51
2023-06-07T02:56:54.897Z,7.57
2023-06-07T02:59:23.003Z,7.57
2023-06-07T03:01:49.673Z,7.57
2023-06-07T03:04:17.216Z,7.59
2023-06-07T03:06:48.288Z,7.63
2023-06-07T03:09:16.849Z,7.63
2023-06-07T03:11:43.948Z,7.64
2023-06-07T03:14:11.941Z,7.68
2023-06-07T03:16:39.828Z,7.68
2023-06-07T03:19:06.513Z,7.72
2023-06-07T03:21:33.204Z,7.60
2023-06-07T03:23:59.996Z,7.23
2023-06-07T03:26:26.891Z,7.39
2023-06-07T03:28:56.977Z,7.56
2023-06-07T03:31:25.901Z,7.68
2023-06-07T03:33:52.589Z,7.76
2023-06-07T03:36:23.415Z,7.82
2023-06-07T03:38:50.054Z,7.92
2023-06-07T03:41:17.925Z,7.82
2023-06-07T03:43:44.841Z,7.76
2023-06-07T03:46:12.695Z,8.00
2023-06-07T03:48:39.496Z,8.18
2023-06-07T03:51:07.153Z,7.99
2023-06-07T03:53:33.931Z,8.22
2023-06-07T03:56:01.643Z,8.44
2023-06-07T03:58:28.500Z,8.53
2023-06-07T04:00:55.213Z,8.76
2023-06-07T04:03:25.611Z,9.00
2023-06-07T04:05:52.635Z,9.17
2023-06-07T04:08:19.472Z,9.32
2023-06-07T04:10:46.175Z,9.45
2023-06-07T04:13:14.231Z,9.50
2023-06-07T04:15:42.884Z,9.60
2023-06-07T04:18:09.654Z,9.68
2023-06-07T04:20:36.376Z,9.74
2023-06-07T04:23:03.008Z,9.80
2023-06-07T04:25:33.756Z,9.89
2023-06-07T04:28:01.821Z,9.98
2023-06-07T04:30:36.612Z,10.03
2023-06-07T04:33:11.332Z,10.10
2023-06-07T04:35:39.198Z,10.14
2023-06-07T04:38:07.273Z,10.19
2023-06-07T04:40:33.926Z,10.24
2023-06-07T04:43:07.491Z,10.07
2023-06-07T04:45:35.466Z,9.87
2023-06-07T04:48:02.251Z,10.09
2023-06-07T04:50:30.230Z,10.26
2023-06-07T04:53:02.142Z,10.40
2023-06-07T04:55:35.335Z,10.51
2023-06-07T04:58:06.876Z,10.54
2023-06-07T05:00:36.058Z,10.36
2023-06-07T05:03:09.822Z,10.51
2023-06-07T05:05:36.888Z,10.68
2023-06-07T05:08:04.022Z,10.80
2023-06-07T05:10:31.103Z,10.86
2023-06-07T05:12:57.970Z,10.66
2023-06-07T05:15:25.026Z,10.80
2023-06-07T05:17:52.181Z,10.96
2023-06-07T05:20:19.508Z,11.06
2023-06-07T05:22:46.642Z,11.13
2023-06-07T05:25:13.482Z,11.18
2023-06-07T05:27:41.548Z,10.93
2023-06-07T05:30:09.265Z,10.76
2023-06-07T05:32:37.339Z,10.87
2023-06-07T05:35:04.793Z,11.01
2023-06-07T05:37:32.038Z,11.11
2023-06-07T05:39:59.377Z,11.23
2023-06-07T05:42:26.108Z,10.99
2023-06-07T05:44:54.446Z,11.09
2023-06-07T05:47:26.723Z,11.27
2023-06-07T05:49:56.596Z,11.42
2023-06-07T05:52:23.226Z,11.53
2023-06-07T05:54:53.332Z,11.41
2023-06-07T05:57:20.015Z,11.29
2023-06-07T05:59:47.820Z,11.48
2023-06-07T06:02:16.673Z,11.35
2023-06-07T06:04:44.799Z,11.37
2023-06-07T06:07:11.525Z,11.44
2023-06-07T06:09:38.190Z,11.22
2023-06-07T06:12:05.294Z,11.46
2023-06-07T06:14:33.246Z,11.33
2023-06-07T06:17:00.052Z,11.31
2023-06-07T06:19:26.942Z,11.43
2023-06-07T06:21:53.654Z,11.28
2023-06-07T06:24:20.394Z,11.49
2023-06-07T06:26:47.137Z,11.42
2023-06-07T06:29:14.220Z,11.52
2023-06-07T06:31:43.911Z,11.63
2023-06-07T06:34:10.764Z,11.54
2023-06-07T06:36:38.989Z,11.71
2023-06-07T06:39:07.214Z,11.60
2023-06-07T06:41:33.865Z,11.75
2023-06-07T06:44:01.731Z,11.80
2023-06-07T06:46:28.432Z,11.76
2023-06-07T06:49:10.652Z,12.02
2023-06-07T06:51:38.502Z,11.89
2023-06-07T06:54:06.112Z,12.04
2023-06-07T06:56:32.900Z,12.15
2023-06-07T06:58:59.532Z,12.08
2023-06-07T07:01:44.227Z,12.30
2023-06-07T07:04:11.733Z,12.29
2023-06-07T07:06:38.508Z,12.33
2023-06-07T07:09:05.299Z,12.53
2023-06-07T07:11:32.100Z,12.45
2023-06-07T07:14:00.105Z,12.36
2023-06-07T07:16:26.847Z,12.61
2023-06-07T07:18:53.655Z,12.65
2023-06-07T07:21:20.318Z,12.57
2023-06-07T07:23:47.404Z,12.83
2023-06-07T07:26:14.174Z,12.93
2023-06-07T07:28:42.376Z,12.86
2023-06-07T07:31:09.308Z,13.08
2023-06-07T07:33:36.019Z,13.18
2023-06-07T07:36:03.828Z,13.06
2023-06-07T07:38:34.122Z,13.23
2023-06-07T07:41:02.541Z,13.30
2023-06-07T07:43:33.502Z,13.09
2023-06-07T07:46:02.168Z,13.31
2023-06-07T07:48:28.837Z,13.31
2023-06-07T07:50:56.350Z,13.27
2023-06-07T07:53:23.062Z,13.48
2023-06-07T07:55:49.820Z,13.66
2023-06-07T07:58:16.533Z,13.49
2023-06-07T08:00:43.335Z,13.62
2023-06-07T08:03:10.138Z,13.78
2023-06-07T08:05:38.664Z,13.76
2023-06-07T08:08:06.425Z,13.66
2023-06-07T08:10:34.351Z,13.80
2023-06-07T08:13:02.214Z,13.99
2023-06-07T08:15:30.283Z,13.98
2023-06-07T08:17:56.969Z,14.02
2023-06-07T08:20:24.913Z,14.23
2023-06-07T08:22:51.850Z,14.40
2023-06-07T08:25:19.270Z,14.55
2023-06-07T08:27:49.333Z,14.63
2023-06-07T08:30:16.719Z,14.76
2023-06-07T08:32:46.747Z,14.84
2023-06-07T08:35:13.412Z,14.97
2023-06-07T08:37:41.174Z,15.05
2023-06-07T08:40:09.816Z,15.12
2023-06-07T08:42:39.212Z,15.26
2023-06-07T08:45:06.801Z,15.34
2023-06-07T08:47:34.792Z,15.34
2023-06-07T08:50:04.717Z,15.36
2023-06-07T08:52:39.337Z,15.45
2023-06-07T08:55:07.755Z,15.44
2023-06-07T08:57:34.866Z,15.42
2023-06-07T09:00:07.475Z,15.56
2023-06-07T09:02:34.623Z,15.69
2023-06-07T09:05:07.546Z,15.76
2023-06-07T09:07:35.909Z,15.82
2023-06-07T09:10:04.332Z,15.86
2023-06-07T09:12:31.221Z,15.88
2023-06-07T09:15:00.209Z,15.97
2023-06-07T09:17:55.560Z,16.00
2023-06-07T09:20:24.719Z,15.99
2023-06-07T09:23:10.252Z,16.07
2023-06-07T09:25:38.965Z,16.18
2023-06-07T09:28:13.659Z,16.26
2023-06-07T09:30:54.451Z,16.28
2023-06-07T09:33:37.304Z,16.35
2023-06-07T09:36:06.492Z,16.23
2023-06-07T09:38:34.464Z,16.17
2023-06-07T09:41:03.351Z,16.41
2023-06-07T09:43:55.801Z,16.62
2023-06-07T09:46:23.091Z,16.76
2023-06-07T09:48:55.063Z,16.85
2023-06-07T09:51:23.802Z,16.91
2023-06-07T09:54:06.825Z,16.96
2023-06-07T09:56:33.577Z,16.99
2023-06-07T09:59:09.213Z,17.07
2023-06-07T10:01:43.259Z,17.09
2023-06-07T10:04:12.121Z,17.15
2023-06-07T10:06:44.022Z,17.23
2023-06-07T10:09:13.839Z,17.19
2023-06-07T10:11:45.201Z,17.19
2023-06-07T10:14:19.450Z,17.24
2023-06-07T10:16:55.484Z,17.29
2023-06-07T10:19:36.497Z,17.36
2023-06-07T10:22:06.837Z,17.45
2023-06-07T10:24:42.246Z,17.53
2023-06-07T10:27:15.750Z,17.61
2023-06-07T10:30:07.842Z,17.65
2023-06-07T10:32:38.130Z,17.70
2023-06-07T10:35:07.436Z,17.80
2023-06-07T10:37:36.382Z,17.85
2023-06-07T10:40:15.417Z,17.82
2023-06-07T10:42:44.896Z,17.44
2023-06-07T10:45:17.721Z,17.60
2023-06-07T10:47:45.594Z,17.86
2023-06-07T10:50:56.009Z,18.11
2023-06-07T10:53:23.292Z,18.17
2023-06-07T10:55:50.033Z,18.32
2023-06-07T10:58:29.213Z,18.33
2023-06-07T11:00:56.662Z,18.38
2023-06-07T11:03:26.382Z,18.33
2023-06-07T11:06:09.988Z,18.33
2023-06-07T11:08:41.141Z,18.40
2023-06-07T11:11:41.570Z,18.43
2023-06-07T11:14:09.637Z,18.52
2023-06-07T11:16:37.381Z,18.62
2023-06-07T11:19:17.068Z,18.70
2023-06-07T11:21:59.120Z,18.74
2023-06-07T11:24:27.220Z,18.79
2023-06-07T11:26:54.007Z,18.80
2023-06-07T11:29:23.870Z,18.93
2023-06-07T11:32:03.275Z,19.02
2023-06-07T11:34:34.466Z,19.09
2023-06-07T11:37:10.693Z,19.19
2023-06-07T11:39:37.502Z,19.21
2023-06-07T11:42:05.225Z,19.24
2023-06-07T11:44:32.053Z,19.25
2023-06-07T11:47:00.861Z,19.10
2023-06-07T11:49:29.237Z,19.00
2023-06-07T11:52:00.371Z,18.89
2023-06-07T11:54:28.809Z,18.90
2023-06-07T11:56:55.659Z,18.98
2023-06-07T11:59:23.402Z,19.11
2023-06-07T12:01:56.826Z,19.21
2023-06-07T12:04:24.825Z,19.29
2023-06-07T12:06:51.968Z,19.36
2023-06-07T12:09:20.573Z,19.45
2023-06-07T12:11:48.434Z,19.52
2023-06-07T12:14:31.909Z,19.42
2023-06-07T12:16:59.317Z,19.49
2023-06-07T12:19:27.150Z,19.58
2023-06-07T12:21:54.271Z,19.66
2023-06-07T12:24:22.286Z,19.58
2023-06-07T12:26:49.543Z,19.69
2023-06-07T12:29:17.176Z,19.71
2023-06-07T12:31:44.003Z,19.73
2023-06-07T12:34:11.423Z,19.66
2023-06-07T12:36:41.161Z,19.74
2023-06-07T12:39:10.590Z,19.82
2023-06-07T12:41:40.228Z,19.89
2023-06-07T12:44:10.184Z,20.03
2023-06-07T12:46:38.851Z,20.08
2023-06-07T12:49:05.777Z,20.19
2023-06-07T12:51:34.788Z,20.31
2023-06-07T12:54:03.119Z,20.45
2023-06-07T12:56:31.342Z,20.58
2023-06-07T12:58:58.195Z,20.66
2023-06-07T13:01:25.352Z,20.75
2023-06-07T13:03:52.184Z,20.78
2023-06-07T13:06:19.454Z,20.94
2023-06-07T13:08:47.660Z,20.99
2023-06-07T13:11:14.424Z,21.12
2023-06-07T13:13:41.361Z,21.24
2023-06-07T13:16:09.526Z,21.33
2023-06-07T13:18:40.311Z,21.46
2023-06-07T13:21:08.174Z,21.49
2023-06-07T13:23:35.141Z,21.59
2023-06-07T13:26:04.117Z,21.76
2023-06-07T13:28:31.310Z,21.60
2023-06-07T13:30:58.029Z,21.73
2023-06-07T13:33:24.701Z,21.84
2023-06-07T13:35:51.915Z,21.76
2023-06-07T13:38:20.418Z,21.84
2023-06-07T13:40:47.437Z,21.96
2023-06-07T13:43:15.784Z,22.02
2023-06-07T13:45:42.622Z,21.96
2023-06-07T13:48:13.277Z,21.83
2023-06-07T13:50:44.038Z,21.54
2023-06-07T13:53:11.987Z,21.56
2023-06-07T13:55:38.665Z,21.77
2023-06-07T13:58:05.312Z,22.01
2023-06-07T14:00:32.072Z,22.17
2023-06-07T14:02:58.863Z,22.38
2023-06-07T14:05:27.180Z,22.43
2023-06-07T14:07:53.908Z,22.34
2023-06-07T14:10:21.404Z,22.34
2023-06-07T14:12:48.077Z,22.16
2023-06-07T14:15:14.741Z,22.34
2023-06-07T14:17:41.480Z,22.59
2023-06-07T14:20:10.605Z,22.71
2023-06-07T14:22:37.308Z,22.85
2023-06-07T14:25:05.888Z,23.15
2023-06-07T14:27:33.893Z,23.09
2023-06-07T14:30:00.995Z,22.91
2023-06-07T14:32:27.688Z,23.17
2023-06-07T14:34:54.538Z,23.18
2023-06-07T14:37:21.280Z,22.92
2023-06-07T14:39:47.916Z,22.81
2023-06-07T14:42:17.564Z,22.97
2023-06-07T14:44:47.111Z,22.90
2023-06-07T14:47:15.294Z,22.69
2023-06-07T14:49:41.924Z,22.63
2023-06-07T14:52:09.956Z,22.65
2023-06-07T14:54:36.672Z,22.73
2023-06-07T14:57:03.583Z,22.96
2023-06-07T14:59:30.247Z,23.08
2023-06-07T15:01:56.945Z,23.04
2023-06-07T15:04:23.643Z,23.22
2023-06-07T15:06:50.853Z,23.14
2023-06-07T15:09:17.503Z,23.29
2023-06-07T15:11:45.801Z,23.42
2023-06-07T15:14:12.430Z,23.57
2023-06-07T15:16:40.483Z,23.49
2023-06-07T15:19:07.190Z,23.20
2023-06-07T15:21:33.943Z,23.09
2023-06-07T15:24:01.981Z,23.13
2023-06-07T15:26:30.005Z,23.36
2023-06-07T15:28:59.083Z,23.41
2023-06-07T15:31:26.315Z,23.33
2023-06-07T15:33:53.861Z,23.13
2023-06-07T15:36:20.568Z,23.20
2023-06-07T15:38:51.064Z,23.32
2023-06-07T15:41:17.812Z,23.24
2023-06-07T15:43:45.261Z,23.07
2023-06-07T15:46:12.417Z,22.96
2023-06-07T15:48:40.519Z,22.83
2023-06-07T15:51:07.227Z,22.84
2023-06-07T15:53:33.991Z,22.68
2023-06-07T15:56:00.762Z,22.68
2023-06-07T15:58:29.321Z,22.70
2023-06-07T16:00:56.043Z,22.74
2023-06-07T16:03:22.968Z,22.67
2023-06-07T16:05:50.028Z,22.67
2023-06-07T16:08:16.896Z,22.59
2023-06-07T16:10:45.875Z,22.38
2023-06-07T16:13:12.629Z,22.27
2023-06-07T16:15:41.285Z,22.06
2023-06-07T16:18:09.511Z,21.96
2023-06-07T16:20:36.308Z,21.90
2023-06-07T16:23:05.256Z,21.91
2023-06-07T16:25:33.520Z,21.89
2023-06-07T16:28:02.112Z,21.88
2023-06-07T16:30:29.462Z,21.88
2023-06-07T16:32:56.214Z,21.78
2023-06-07T16:35:22.936Z,21.63
2023-06-07T16:37:49.642Z,21.60
2023-06-07T16:40:18.347Z,21.55
2023-06-07T16:42:47.119Z,21.58
2023-06-07T16:45:15.671Z,21.68
2023-06-07T16:47:44.259Z,21.79
2023-06-07T16:50:11.500Z,21.93
2023-06-07T16:52:39.993Z,22.14
2023-06-07T16:55:07.298Z,22.28
2023-06-07T16:57:36.709Z,22.26
2023-06-07T17:00:07.203Z,22.15
2023-06-07T17:02:34.356Z,22.04
2023-06-07T17:05:01.150Z,21.99
2023-06-07T17:07:27.841Z,21.91
2023-06-07T17:09:56.076Z,21.84
2023-06-07T17:12:22.767Z,21.86
2023-06-07T17:14:50.897Z,21.88
2023-06-07T17:17:19.537Z,21.86
2023-06-07T17:19:46.295Z,21.85
2023-06-07T17:22:12.931Z,21.95
2023-06-07T17:24:39.661Z,21.96
2023-06-07T17:27:08.490Z,21.86
2023-06-07T17:29:36.313Z,21.79
2023-06-07T17:32:03.263Z,21.70
2023-06-07T17:34:30.051Z,21.58
2023-06-07T17:36:56.861Z,21.64
2023-06-07T17:39:25.210Z,21.66
2023-06-07T17:41:51.958Z,21.62
2023-06-07T17:44:20.944Z,21.54
2023-06-07T17:46:49.664Z,21.46
2023-06-07T17:49:16.474Z,21.40
2023-06-07T17:51:44.885Z,21.26
2023-06-07T17:54:13.549Z,21.27
2023-06-07T17:56:42.165Z,21.24
2023-06-07T17:59:08.911Z,21.22
2023-06-07T18:01:35.773Z,21.30
2023-06-07T18:04:06.867Z,21.31
2023-06-07T18:06:33.711Z,21.32
2023-06-07T18:09:00.412Z,21.39
2023-06-07T18:11:27.888Z,21.40
2023-06-07T18:13:56.249Z,21.38
2023-06-07T18:16:23.277Z,21.33
2023-06-07T18:18:51.663Z,21.33
2023-06-07T18:21:18.394Z,21.33
2023-06-07T18:23:45.082Z,21.31
2023-06-07T18:26:14.149Z,21.32
2023-06-07T18:28:43.210Z,21.25
2023-06-07T18:31:10.524Z,21.23
2023-06-07T18:33:37.396Z,21.21
2023-06-07T18:36:04.332Z,21.17
2023-06-07T18:38:31.144Z,21.14
2023-06-07T18:40:59.715Z,21.07
2023-06-07T18:43:26.353Z,21.01
2023-06-07T18:45:54.593Z,20.94
2023-06-07T18:48:24.170Z,20.84
2023-06-07T18:50:51.350Z,20.74
2023-06-07T18:53:19.875Z,20.65
2023-06-07T18:55:46.602Z,20.57
2023-06-07T18:58:15.474Z,20.49
2023-06-07T19:00:43.379Z,20.46
2023-06-07T19:03:10.198Z,20.37
2023-06-07T19:05:36.935Z,20.25
2023-06-07T19:08:03.643Z,20.20
2023-06-07T19:10:30.385Z,20.16
2023-06-07T19:12:57.059Z,20.17
2023-06-07T19:15:23.754Z,20.17
2023-06-07T19:17:50.617Z,20.20
2023-06-07T19:20:20.630Z,20.15
2023-06-07T19:22:48.831Z,20.08
2023-06-07T19:25:15.686Z,20.06
2023-06-07T19:27:42.556Z,20.02
2023-06-07T19:30:11.854Z,19.93
2023-06-07T19:32:40.450Z,19.88
2023-06-07T19:35:07.995Z,19.83
2023-06-07T19:37:36.520Z,19.77
2023-06-07T19:40:07.919Z,19.70
2023-06-07T19:42:38.073Z,19.65
2023-06-07T19:45:05.412Z,19.58
2023-06-07T19:47:35.183Z,19.52
2023-06-07T19:50:04.703Z,19.41
2023-06-07T19:52:31.428Z,19.27
2023-06-07T19:54:58.262Z,19.25
2023-06-07T19:57:24.924Z,19.21
2023-06-07T19:59:51.761Z,19.14
2023-06-07T20:02:18.535Z,19.02
2023-06-07T20:04:45.820Z,18.91
2023-06-07T20:07:12.585Z,18.87
2023-06-07T20:09:41.344Z,18.81
2023-06-07T20:12:09.385Z,18.77
2023-06-07T20:14:37.096Z,18.67
2023-06-07T20:17:03.928Z,18.62
2023-06-07T20:19:30.625Z,18.56
2023-06-07T20:21:57.634Z,18.54
2023-06-07T20:24:26.026Z,18.52
2023-06-07T20:26:52.720Z,18.46
2023-06-07T20:29:24.201Z,18.43
2023-06-07T20:31:53.807Z,18.34
2023-06-07T20:34:20.801Z,18.28
2023-06-07T20:36:50.000Z,18.26
2023-06-07T20:39:16.760Z,18.26
2023-06-07T20:41:43.534Z,18.23
2023-06-07T20:44:10.400Z,18.22
2023-06-07T20:46:37.403Z,18.14
2023-06-07T20:49:06.022Z,18.07
2023-06-07T20:51:34.709Z,17.98
2023-06-07T20:54:01.655Z,17.91
2023-06-07T20:56:30.265Z,17.88
2023-06-07T20:58:56.964Z,17.87
2023-06-07T21:01:23.721Z,17.82
2023-06-07T21:03:51.936Z,17.75
2023-06-07T21:06:19.110Z,17.73
2023-06-07T21:08:46.044Z,17.72
2023-06-07T21:11:12.822Z,17.65
2023-06-07T21:13:40.444Z,17.65
2023-06-07T21:16:07.342Z,17.54
2023-06-07T21:18:34.077Z,17.50
2023-06-07T21:21:01.092Z,17.41
2023-06-07T21:23:29.568Z,17.40
2023-06-07T21:25:56.371Z,17.38
2023-06-07T21:28:24.793Z,17.32
2023-06-07T21:30:52.045Z,17.25
2023-06-07T21:33:21.876Z,17.17
2023-06-07T21:35:48.561Z,17.14
2023-06-07T21:38:15.382Z,17.05
2023-06-07T21:40:42.075Z,17.03
2023-06-07T21:43:10.548Z,16.92
2023-06-07T21:45:37.281Z,16.83
2023-06-07T21:48:06.024Z,16.80
2023-06-07T21:50:32.759Z,16.78
2023-06-07T21:52:59.518Z,16.74
2023-06-07T21:55:28.044Z,16.71
2023-06-07T21:57:54.752Z,16.70
2023-06-07T22:00:22.461Z,16.65
2023-06-07T22:02:49.174Z,16.61
2023-06-07T22:05:17.680Z,16.56
2023-06-07T22:07:44.644Z,16.54
2023-06-07T22:10:11.511Z,16.46
2023-06-07T22:12:41.827Z,16.41
2023-06-07T22:15:09.274Z,16.32
2023-06-07T22:17:36.586Z,16.26
2023-06-07T22:20:08.068Z,16.24
2023-06-07T22:22:35.590Z,16.18
2023-06-07T22:25:04.146Z,16.04
2023-06-07T22:27:33.353Z,15.95
2023-06-07T22:30:00.524Z,15.93
2023-06-07T22:32:29.842Z,15.94
2023-06-07T22:35:04.423Z,15.89
2023-06-07T22:37:33.274Z,15.83
2023-06-07T22:40:01.710Z,15.76
2023-06-07T22:42:28.409Z,15.75
2023-06-07T22:44:55.185Z,15.65
2023-06-07T22:47:22.741Z,15.62
2023-06-07T22:49:52.756Z,15.58
2023-06-07T22:52:24.603Z,15.51
2023-06-07T22:54:51.713Z,15.46
2023-06-07T22:57:20.077Z,15.42
2023-06-07T22:59:46.717Z,15.45
2023-06-07T23:02:13.499Z,15.38
2023-06-07T23:04:40.327Z,15.31
2023-06-07T23:07:10.367Z,15.32
2023-06-07T23:09:42.275Z,15.24
2023-06-07T23:12:12.763Z,15.25
2023-06-07T23:14:39.506Z,15.24
2023-06-07T23:17:06.260Z,15.25
2023-06-07T23:19:33.654Z,15.23
2023-06-07T23:22:00.413Z,15.18
2023-06-07T23:24:28.438Z,15.17
2023-06-07T23:26:59.493Z,15.14
2023-06-07T23:29:30.640Z,15.14
2023-06-07T23:31:57.481Z,15.15
2023-06-07T23:34:26.089Z,15.20
2023-06-07T23:36:54.595Z,15.20
2023-06-07T23:39:21.500Z,15.23
2023-06-07T23:41:48.854Z,15.27
2023-06-07T23:44:27.232Z,15.27
2023-06-07T23:46:58.137Z,15.28
2023-06-07T23:49:34.036Z,15.26
2023-06-07T23:52:03.247Z,15.25
2023-06-07T23:54:30.109Z,15.23
2023-06-07T23:56:57.379Z,15.29
2023-06-07T23:59:26.591Z,15.30
